Terminal Aerodrome Forecast
Issued by NWS Paducah, KY

Home | Current Version | Previous Version | Text Only | Print | Product List | Glossary On
Versions: 1 2 3 4 5 6 7 8 9 10 11 12 13 14 15 16 17
485
FTUS43 KPAH 132324
TAFEVV
TAF
KEVV 132324Z 1400/1424 23014KT P6SM BKN070
     FM140200 28010G19KT P6SM SCT030
     FM140500 30012G23KT P6SM BKN028
     FM141100 33006KT P6SM SCT028
     FM141600 36005KT P6SM BKN090=

USA.gov is the U.S. government's official web portal to all federal, state and local government web resources and services.